Time;durP1;ratioP1;P1;durP2;ratioP2;P2;SDS_P1;SDS_P2;PMS_P1;PMS_P2;Temp;Humidity;BMP_temperature;BMP_pressure;BME280_temperature;BME280_humidity;BME280_pressure;Samples;Min_cycle;Max_cycle;Signal;HPM_P1;HPM_P2
2022/03/11 00:08:54;;;;;;;5.55;2.45;;;10.00;82.80;;;;;;20628191;28;20137;-47
2022/03/11 00:18:55;;;;;;;19.35;2.75;;;9.90;83.20;;;;;;20643194;28;20502;-47
2022/03/11 00:28:56;;;;;;;7.40;2.25;;;9.90;83.10;;;;;;20632446;28;20039;-47
2022/03/11 00:38:57;;;;;;;5.45;2.70;;;9.90;83.90;;;;;;20623432;28;20466;-47
2022/03/11 00:48:58;;;;;;;5.25;2.15;;;9.80;84.00;;;;;;20642774;28;20089;-48
2022/03/11 00:59:00;;;;;;;7.28;2.17;;;9.70;83.60;;;;;;20634494;28;20046;-47
2022/03/11 01:09:02;;;;;;;6.60;1.98;;;9.60;84.10;;;;;;20619820;28;20053;-47
2022/03/11 01:19:04;;;;;;;7.88;2.25;;;9.60;83.60;;;;;;20635425;28;20381;-49
2022/03/11 01:29:05;;;;;;;9.02;2.88;;;9.50;84.20;;;;;;20620860;28;20038;-47
2022/03/11 01:39:06;;;;;;;6.28;2.83;;;9.40;84.50;;;;;;20612555;28;20038;-47
2022/03/11 01:49:09;;;;;;;7.35;2.50;;;9.30;84.00;;;;;;20616799;28;20068;-47
2022/03/11 01:59:14;;;;;;;7.70;3.00;;;9.30;83.70;;;;;;20627068;28;20153;-48
2022/03/11 02:09:15;;;;;;;7.38;2.58;;;9.20;84.00;;;;;;20626988;28;20161;-47
2022/03/11 02:19:16;;;;;;;9.05;2.47;;;9.20;84.40;;;;;;20626401;28;20039;-47
2022/03/11 02:29:18;;;;;;;4.18;1.95;;;9.10;83.80;;;;;;20615486;28;20093;-47
2022/03/11 02:39:19;;;;;;;8.02;2.70;;;9.00;83.90;;;;;;20617943;28;20055;-47
2022/03/11 02:49:20;;;;;;;5.65;2.30;;;8.90;83.60;;;;;;20637897;28;20094;-47
2022/03/11 02:59:21;;;;;;;9.95;3.05;;;8.90;84.10;;;;;;20636390;28;20042;-47
2022/03/11 03:09:22;;;;;;;6.32;2.17;;;8.70;84.10;;;;;;20645796;28;21013;-47
2022/03/11 03:19:23;;;;;;;8.10;3.00;;;8.70;84.60;;;;;;20642861;28;20050;-46
2022/03/11 03:29:24;;;;;;;5.80;2.63;;;8.60;84.60;;;;;;20642563;28;20038;-46
2022/03/11 03:39:26;;;;;;;8.02;3.13;;;8.50;85.40;;;;;;20636728;28;20536;-47
2022/03/11 03:49:28;;;;;;;8.35;2.78;;;8.40;84.80;;;;;;20637212;28;20394;-47
2022/03/11 03:59:30;;;;;;;7.55;2.70;;;8.50;84.80;;;;;;20632236;28;20073;-47
2022/03/11 04:09:31;;;;;;;9.23;2.53;;;8.40;84.60;;;;;;20634256;28;20038;-46
2022/03/11 04:19:33;;;;;;;8.52;3.13;;;8.20;84.90;;;;;;20632552;28;20038;-47
2022/03/11 04:29:36;;;;;;;8.35;3.33;;;8.00;85.90;;;;;;20630033;28;20534;-47
2022/03/11 04:39:38;;;;;;;6.13;2.63;;;8.00;86.00;;;;;;20620983;28;20053;-47
2022/03/11 04:49:39;;;;;;;8.55;2.47;;;7.80;86.70;;;;;;20629202;28;20037;-47
2022/03/11 04:59:41;;;;;;;8.52;2.53;;;7.80;87.00;;;;;;20616957;28;20051;-47
2022/03/11 05:09:42;;;;;;;6.45;2.30;;;7.60;87.80;;;;;;20621873;28;20039;-47
2022/03/11 05:19:46;;;;;;;8.68;2.90;;;7.30;88.90;;;;;;20623610;28;20046;-47
2022/03/11 05:29:47;;;;;;;8.63;2.50;;;7.30;89.10;;;;;;20632566;28;20041;-47
2022/03/11 05:39:48;;;;;;;6.40;2.47;;;7.30;90.00;;;;;;20642919;28;20267;-47
2022/03/11 05:49:50;;;;;;;7.53;2.78;;;7.10;90.50;;;;;;20626279;28;22122;-47
2022/03/11 05:59:51;;;;;;;7.80;3.25;;;7.00;90.80;;;;;;20620855;28;20047;-46
2022/03/11 06:09:52;;;;;;;7.68;2.63;;;6.90;91.10;;;;;;20625417;28;20034;-47
2022/03/11 06:19:53;;;;;;;10.05;2.97;;;6.80;91.90;;;;;;20632138;28;20050;-47
2022/03/11 06:29:56;;;;;;;7.63;2.10;;;6.80;92.10;;;;;;20640495;28;20516;-47
2022/03/11 06:39:57;;;;;;;4.68;1.95;;;6.60;92.70;;;;;;20607653;28;20046;-47
2022/03/11 06:49:58;;;;;;;5.43;2.35;;;6.70;93.00;;;;;;20606581;28;20041;-46
2022/03/11 06:59:59;;;;;;;5.43;2.25;;;6.60;93.30;;;;;;20599253;28;20055;-47
2022/03/11 07:10:03;;;;;;;9.20;2.78;;;6.70;94.00;;;;;;20613750;28;20061;-46
2022/03/11 07:20:05;;;;;;;6.53;3.42;;;6.90;93.90;;;;;;20620520;28;20057;-46
2022/03/11 07:30:09;;;;;;;6.05;2.45;;;7.10;93.90;;;;;;20622582;28;20469;-47
2022/03/11 07:40:11;;;;;;;7.68;3.13;;;7.30;93.70;;;;;;20605822;28;20047;-46
2022/03/11 07:50:13;;;;;;;9.85;2.90;;;7.50;93.70;;;;;;20625930;28;20486;-46
2022/03/11 08:00:17;;;;;;;8.13;3.80;;;7.60;93.10;;;;;;20599649;28;20061;-47
2022/03/11 08:10:18;;;;;;;6.25;2.75;;;7.90;93.30;;;;;;20623180;28;20048;-47
2022/03/11 08:20:20;;;;;;;11.23;4.68;;;8.20;93.00;;;;;;20632466;28;20051;-48
2022/03/11 08:30:22;;;;;;;8.13;3.90;;;8.40;92.90;;;;;;20635407;28;20078;-46
2022/03/11 08:40:24;;;;;;;8.40;3.17;;;8.60;92.70;;;;;;20624822;28;21516;-47
2022/03/11 08:50:26;;;;;;;8.70;3.65;;;8.90;92.50;;;;;;20628233;28;20046;-47
2022/03/11 09:00:27;;;;;;;9.38;2.55;;;9.20;92.20;;;;;;20573792;28;20054;-47
2022/03/11 09:10:28;;;;;;;8.23;3.50;;;9.60;91.80;;;;;;20578561;28;20058;-47
2022/03/11 09:20:29;;;;;;;7.35;2.72;;;10.00;91.40;;;;;;20586048;28;20046;-47
2022/03/11 09:30:30;;;;;;;9.38;3.83;;;10.40;91.10;;;;;;20605552;28;20046;-47
2022/03/11 09:40:33;;;;;;;10.77;4.10;;;10.60;91.50;;;;;;20636966;28;20062;-47
2022/03/11 09:50:36;;;;;;;10.48;3.38;;;10.80;91.20;;;;;;20640446;28;20353;-47
2022/03/11 10:00:38;;;;;;;9.88;3.72;;;11.00;91.40;;;;;;20595844;28;20065;-47
2022/03/11 10:10:39;;;;;;;11.30;4.05;;;11.20;91.40;;;;;;20591553;28;20043;-47
2022/03/11 10:20:41;;;;;;;13.30;4.35;;;11.30;91.60;;;;;;20618438;28;20409;-47
2022/03/11 10:30:44;;;;;;;9.07;3.53;;;11.60;91.10;;;;;;20611266;28;20403;-47
2022/03/11 10:40:55;;;;;;;11.38;4.80;;;11.70;91.50;;;;;;20576136;28;20053;-47
2022/03/11 10:50:57;;;;;;;14.25;4.57;;;12.10;91.30;;;;;;20550036;28;20058;-47
2022/03/11 11:00:58;;;;;;;17.90;6.05;;;12.30;91.40;;;;;;20564198;28;20062;-47
2022/03/11 11:11:00;;;;;;;11.02;4.25;;;12.70;91.30;;;;;;20549919;28;20042;-47
2022/03/11 11:21:07;;;;;;;11.65;5.30;;;13.30;90.70;;;;;;20566823;28;20516;-47
2022/03/11 11:31:09;;;;;;;12.37;4.27;;;13.40;90.20;;;;;;20583115;28;20042;-47
2022/03/11 11:41:26;;;;;;;10.50;4.40;;;13.70;90.70;;;;;;20608197;28;20043;-47
2022/03/11 11:51:36;;;;;;;10.95;4.38;;;14.50;90.20;;;;;;20583897;28;20427;-47
2022/03/11 12:01:43;;;;;;;9.85;4.13;;;15.00;89.90;;;;;;20585458;28;20221;-47
2022/03/11 12:11:45;;;;;;;10.48;4.50;;;15.30;89.30;;;;;;20590314;28;20046;-47
2022/03/11 12:21:46;;;;;;;8.77;4.40;;;15.50;89.70;;;;;;20594141;28;20053;-47
2022/03/11 12:31:47;;;;;;;11.38;4.35;;;15.80;88.20;;;;;;20553564;28;20050;-47
2022/03/11 12:41:48;;;;;;;14.63;4.53;;;15.80;87.90;;;;;;20589597;28;20501;-47
2022/03/11 12:51:49;;;;;;;10.52;4.82;;;16.20;88.90;;;;;;20587020;28;20053;-47
2022/03/11 13:01:52;;;;;;;13.15;4.10;;;16.20;86.10;;;;;;20590442;28;20046;-47
2022/03/11 13:11:53;;;;;;;14.35;5.82;;;16.20;87.10;;;;;;20577059;28;20053;-47
2022/03/11 13:21:54;;;;;;;9.20;4.50;;;16.00;85.70;;;;;;20560781;28;20046;-47
2022/03/11 13:31:58;;;;;;;10.43;5.22;;;16.20;85.20;;;;;;20571347;28;20039;-47
2022/03/11 13:41:59;;;;;;;11.88;4.95;;;16.20;84.90;;;;;;20575463;28;20046;-48
2022/03/11 13:52:05;;;;;;;12.13;4.80;;;16.60;85.70;;;;;;20574382;28;20529;-47
2022/03/11 14:02:17;;;;;;;17.15;5.43;;;16.90;84.20;;;;;;20578845;28;20068;-48
2022/03/11 14:12:27;;;;;;;17.08;5.65;;;17.00;84.50;;;;;;20575545;28;20046;-47
2022/03/11 14:22:28;;;;;;;11.38;4.85;;;16.90;83.60;;;;;;20580808;28;20922;-48
2022/03/11 14:32:29;;;;;;;12.80;5.28;;;16.70;85.10;;;;;;20578956;28;20031;-48
2022/03/11 14:42:32;;;;;;;11.55;4.65;;;17.20;83.60;;;;;;20580162;28;20066;-47
2022/03/11 14:52:33;;;;;;;11.52;4.35;;;16.10;85.40;;;;;;20600124;28;20050;-48
2022/03/11 15:02:36;;;;;;;9.77;4.53;;;16.20;85.70;;;;;;20598708;28;20050;-47
2022/03/11 15:12:38;;;;;;;12.70;4.72;;;16.00;86.10;;;;;;20593146;28;20045;-47
2022/03/11 15:22:39;;;;;;;12.13;5.10;;;15.90;87.40;;;;;;20591776;28;20423;-47
2022/03/11 15:32:40;;;;;;;13.30;4.15;;;15.70;87.20;;;;;;20558672;28;20360;-47
2022/03/11 15:42:42;;;;;;;10.65;4.97;;;15.20;88.50;;;;;;20592719;28;20129;-48
2022/03/11 15:52:44;;;;;;;8.95;3.78;;;14.90;89.00;;;;;;20571832;28;20043;-47
2022/03/11 16:02:47;;;;;;;9.13;4.50;;;14.80;89.80;;;;;;20586537;28;20051;-47
2022/03/11 16:12:51;;;;;;;11.35;5.38;;;14.70;90.20;;;;;;20594175;28;20053;-47
2022/03/11 16:22:53;;;;;;;15.60;5.90;;;14.70;90.00;;;;;;20607841;28;20050;-47
2022/03/11 16:32:54;;;;;;;10.27;4.30;;;14.60;89.60;;;;;;20623066;28;20201;-47
2022/03/11 16:42:55;;;;;;;14.27;6.30;;;14.50;89.60;;;;;;20606622;28;20054;-47
2022/03/11 16:52:57;;;;;;;14.68;6.28;;;14.40;90.10;;;;;;20609519;28;20498;-47
2022/03/11 17:02:58;;;;;;;11.00;4.97;;;14.30;89.90;;;;;;20619566;28;20049;-48
2022/03/11 17:13:01;;;;;;;13.13;4.10;;;14.10;90.00;;;;;;20614640;28;20041;-47
2022/03/11 17:23:05;;;;;;;46.33;6.05;;;14.00;89.50;;;;;;20636042;28;20046;-47
2022/03/11 17:33:06;;;;;;;13.85;5.50;;;13.80;88.60;;;;;;20620965;28;20038;-47
2022/03/11 17:43:08;;;;;;;8.98;4.30;;;13.50;87.90;;;;;;20626299;28;20045;-47
2022/03/11 17:53:09;;;;;;;15.00;5.25;;;13.40;87.30;;;;;;20619790;28;20054;-47
2022/03/11 18:03:10;;;;;;;12.75;4.57;;;13.30;87.90;;;;;;20628502;28;20050;-48
2022/03/11 18:13:12;;;;;;;11.60;5.20;;;13.10;88.10;;;;;;20621517;28;20486;-47
2022/03/11 18:23:16;;;;;;;14.02;5.35;;;13.00;88.00;;;;;;20605536;28;20046;-48
2022/03/11 18:33:17;;;;;;;11.68;5.32;;;12.90;87.10;;;;;;20627011;28;20080;-48
2022/03/11 18:43:19;;;;;;;16.17;6.47;;;12.70;87.90;;;;;;20617894;28;20060;-48
2022/03/11 18:53:22;;;;;;;13.18;5.70;;;12.60;86.90;;;;;;20633982;28;20120;-49
2022/03/11 19:03:25;;;;;;;11.88;4.55;;;12.50;86.50;;;;;;20635870;28;20391;-48
2022/03/11 19:13:26;;;;;;;15.45;4.68;;;12.50;86.30;;;;;;20610004;28;20050;-48
2022/03/11 19:23:29;;;;;;;12.52;5.15;;;12.40;86.80;;;;;;20619707;28;20503;-48
2022/03/11 19:33:35;;;;;;;11.63;4.95;;;12.30;86.70;;;;;;20603305;28;20721;-48
2022/03/11 19:43:37;;;;;;;13.35;5.32;;;12.30;86.50;;;;;;20622785;28;20045;-48
2022/03/11 19:53:39;;;;;;;15.40;4.82;;;12.10;86.10;;;;;;20621350;28;20121;-48
2022/03/11 20:03:41;;;;;;;11.77;4.20;;;12.10;86.50;;;;;;20624690;28;20695;-48
2022/03/11 20:13:44;;;;;;;14.23;5.65;;;12.00;85.90;;;;;;20608445;28;20039;-47
2022/03/11 20:23:45;;;;;;;10.18;4.22;;;11.90;86.70;;;;;;20622810;28;20215;-48
2022/03/11 20:33:47;;;;;;;14.10;5.00;;;11.80;86.60;;;;;;20615930;28;20045;-48
2022/03/11 20:43:52;;;;;;;15.38;4.63;;;11.70;87.00;;;;;;20581141;28;20406;-48
2022/03/11 20:53:53;;;;;;;9.88;4.65;;;11.70;86.60;;;;;;20617563;28;20038;-48
2022/03/11 21:03:54;;;;;;;13.23;5.68;;;11.50;86.80;;;;;;20600509;28;20065;-48
2022/03/11 21:13:56;;;;;;;11.27;4.70;;;11.50;86.40;;;;;;20614127;28;20034;-47
2022/03/11 21:23:58;;;;;;;12.68;4.63;;;11.40;86.80;;;;;;20618316;28;20046;-48
2022/03/11 21:34:01;;;;;;;10.20;4.95;;;11.40;85.90;;;;;;20585487;28;20051;-47
2022/03/11 21:44:02;;;;;;;11.25;4.53;;;11.20;85.80;;;;;;20574557;28;20051;-47
2022/03/11 21:54:04;;;;;;;9.02;4.07;;;11.10;86.00;;;;;;20576521;28;20035;-47
2022/03/11 22:04:05;;;;;;;10.00;3.90;;;11.10;86.20;;;;;;20569464;28;20055;-47
2022/03/11 22:14:06;;;;;;;10.73;4.63;;;11.10;85.60;;;;;;20564096;28;20522;-47
2022/03/11 22:24:10;;;;;;;8.13;4.60;;;11.00;85.70;;;;;;20551108;28;20046;-48
2022/03/11 22:34:11;;;;;;;10.73;4.55;;;10.90;86.10;;;;;;20548926;28;20034;-47
2022/03/11 22:44:13;;;;;;;11.73;4.65;;;10.80;86.20;;;;;;20550349;28;20531;-47
2022/03/11 22:54:17;;;;;;;8.65;3.70;;;10.70;86.20;;;;;;20554561;28;20057;-47
2022/03/11 23:04:18;;;;;;;10.27;3.95;;;10.70;86.60;;;;;;20562636;28;20051;-47
2022/03/11 23:14:20;;;;;;;11.70;4.97;;;10.70;86.80;;;;;;20564140;28;20047;-47
2022/03/11 23:24:23;;;;;;;11.50;3.92;;;10.60;86.90;;;;;;20579591;28;20081;-47
2022/03/11 23:34:25;;;;;;;12.00;3.22;;;10.60;87.40;;;;;;20582163;28;20578;-47
2022/03/11 23:44:27;;;;;;;10.38;4.45;;;10.50;88.50;;;;;;20583570;28;20050;-47
2022/03/11 23:54:28;;;;;;;8.63;3.92;;;10.60;87.80;;;;;;20583327;28;20402;-47
